sensor_id;sensor_type;location;lat;lon;timestamp;temperature;humidity
60039;DHT22;45916;52.734;6.544;2022-12-08T00:01:07;2.40;99.90
60039;DHT22;45916;52.734;6.544;2022-12-08T00:03:33;2.40;99.90
60039;DHT22;45916;52.734;6.544;2022-12-08T00:05:58;2.30;99.90
60039;DHT22;45916;52.734;6.544;2022-12-08T00:08:45;2.30;99.90
60039;DHT22;45916;52.734;6.544;2022-12-08T00:11:29;2.10;99.90
60039;DHT22;45916;52.734;6.544;2022-12-08T00:13:54;1.90;99.90
60039;DHT22;45916;52.734;6.544;2022-12-08T00:16:20;1.80;99.90
60039;DHT22;45916;52.734;6.544;2022-12-08T00:18:46;1.70;99.90
60039;DHT22;45916;52.734;6.544;2022-12-08T00:21:11;1.70;99.90
60039;DHT22;45916;52.734;6.544;2022-12-08T00:23:37;1.60;99.90
60039;DHT22;45916;52.734;6.544;2022-12-08T00:26:03;1.50;99.90
60039;DHT22;45916;52.734;6.544;2022-12-08T00:28:30;1.50;99.90
60039;DHT22;45916;52.734;6.544;2022-12-08T00:30:56;1.50;99.90
60039;DHT22;45916;52.734;6.544;2022-12-08T00:33:22;1.40;99.90
60039;DHT22;45916;52.734;6.544;2022-12-08T00:35:48;1.40;99.90
60039;DHT22;45916;52.734;6.544;2022-12-08T00:38:13;1.30;99.90
60039;DHT22;45916;52.734;6.544;2022-12-08T00:40:44;1.30;99.90
60039;DHT22;45916;52.734;6.544;2022-12-08T00:43:10;1.40;99.90
60039;DHT22;45916;52.734;6.544;2022-12-08T00:45:35;1.40;99.90
60039;DHT22;45916;52.734;6.544;2022-12-08T00:48:04;1.40;99.90
60039;DHT22;45916;52.734;6.544;2022-12-08T00:50:30;1.40;99.90
60039;DHT22;45916;52.734;6.544;2022-12-08T00:52:56;1.40;99.90
60039;DHT22;45916;52.734;6.544;2022-12-08T00:55:21;1.30;99.90
60039;DHT22;45916;52.734;6.544;2022-12-08T00:57:47;1.30;99.90
60039;DHT22;45916;52.734;6.544;2022-12-08T01:00:13;1.30;99.90
60039;DHT22;45916;52.734;6.544;2022-12-08T01:02:40;1.30;99.90
60039;DHT22;45916;52.734;6.544;2022-12-08T01:05:06;1.20;99.90
60039;DHT22;45916;52.734;6.544;2022-12-08T01:07:32;1.20;99.90
60039;DHT22;45916;52.734;6.544;2022-12-08T01:09:58;1.20;99.90
60039;DHT22;45916;52.734;6.544;2022-12-08T01:12:23;1.20;99.90
60039;DHT22;45916;52.734;6.544;2022-12-08T01:14:49;1.20;99.90
60039;DHT22;45916;52.734;6.544;2022-12-08T01:17:15;1.30;99.90
60039;DHT22;45916;52.734;6.544;2022-12-08T01:19:40;1.30;99.90
60039;DHT22;45916;52.734;6.544;2022-12-08T01:22:07;1.40;99.90
60039;DHT22;45916;52.734;6.544;2022-12-08T01:24:32;1.50;99.90
60039;DHT22;45916;52.734;6.544;2022-12-08T01:26:58;1.70;99.90
60039;DHT22;45916;52.734;6.544;2022-12-08T01:29:25;1.90;99.90
60039;DHT22;45916;52.734;6.544;2022-12-08T01:31:51;2.10;99.90
60039;DHT22;45916;52.734;6.544;2022-12-08T01:34:17;2.20;99.90
60039;DHT22;45916;52.734;6.544;2022-12-08T01:36:42;2.20;99.90
60039;DHT22;45916;52.734;6.544;2022-12-08T01:39:18;2.20;99.90
60039;DHT22;45916;52.734;6.544;2022-12-08T01:41:45;2.20;99.90
60039;DHT22;45916;52.734;6.544;2022-12-08T01:46:41;2.20;99.90
60039;DHT22;45916;52.734;6.544;2022-12-08T01:52:15;2.40;99.90
60039;DHT22;45916;52.734;6.544;2022-12-08T01:54:51;2.50;99.90
60039;DHT22;45916;52.734;6.544;2022-12-08T01:57:22;2.60;99.90
60039;DHT22;45916;52.734;6.544;2022-12-08T01:59:56;2.60;99.90
60039;DHT22;45916;52.734;6.544;2022-12-08T02:02:30;2.50;99.90
60039;DHT22;45916;52.734;6.544;2022-12-08T02:04:57;2.50;99.90
60039;DHT22;45916;52.734;6.544;2022-12-08T02:07:23;2.60;99.90
60039;DHT22;45916;52.734;6.544;2022-12-08T02:09:49;2.70;99.90
60039;DHT22;45916;52.734;6.544;2022-12-08T02:12:16;2.80;99.90
60039;DHT22;45916;52.734;6.544;2022-12-08T02:14:42;2.90;99.90
60039;DHT22;45916;52.734;6.544;2022-12-08T02:23:14;3.00;99.90
60039;DHT22;45916;52.734;6.544;2022-12-08T02:34:40;3.30;99.90
60039;DHT22;45916;52.734;6.544;2022-12-08T02:37:09;3.30;99.90
60039;DHT22;45916;52.734;6.544;2022-12-08T02:40:00;3.30;99.90
60039;DHT22;45916;52.734;6.544;2022-12-08T02:42:34;3.40;99.90
60039;DHT22;45916;52.734;6.544;2022-12-08T02:45:11;3.40;99.90
60039;DHT22;45916;52.734;6.544;2022-12-08T02:47:39;3.50;99.90
60039;DHT22;45916;52.734;6.544;2022-12-08T02:50:06;3.50;99.90
60039;DHT22;45916;52.734;6.544;2022-12-08T03:00:24;3.50;99.90
60039;DHT22;45916;52.734;6.544;2022-12-08T03:08:36;3.40;99.90
60039;DHT22;45916;52.734;6.544;2022-12-08T03:11:09;3.40;99.90
60039;DHT22;45916;52.734;6.544;2022-12-08T03:13:42;3.40;99.90
60039;DHT22;45916;52.734;6.544;2022-12-08T03:16:14;3.40;99.90
60039;DHT22;45916;52.734;6.544;2022-12-08T03:18:47;3.40;99.90
60039;DHT22;45916;52.734;6.544;2022-12-08T03:21:15;3.50;99.90
60039;DHT22;45916;52.734;6.544;2022-12-08T03:23:43;3.50;99.90
60039;DHT22;45916;52.734;6.544;2022-12-08T03:29:05;3.40;99.90
60039;DHT22;45916;52.734;6.544;2022-12-08T03:31:33;3.40;99.90
60039;DHT22;45916;52.734;6.544;2022-12-08T03:34:03;3.30;99.90
60039;DHT22;45916;52.734;6.544;2022-12-08T03:36:29;3.30;99.90
60039;DHT22;45916;52.734;6.544;2022-12-08T03:38:55;3.20;99.90
60039;DHT22;45916;52.734;6.544;2022-12-08T03:41:21;3.20;99.90
60039;DHT22;45916;52.734;6.544;2022-12-08T03:43:53;3.10;99.90
60039;DHT22;45916;52.734;6.544;2022-12-08T03:46:21;3.10;99.90
60039;DHT22;45916;52.734;6.544;2022-12-08T03:48:47;3.10;99.90
60039;DHT22;45916;52.734;6.544;2022-12-08T03:51:13;3.20;99.90
60039;DHT22;45916;52.734;6.544;2022-12-08T03:53:38;3.20;99.90
60039;DHT22;45916;52.734;6.544;2022-12-08T03:56:13;3.30;99.90
60039;DHT22;45916;52.734;6.544;2022-12-08T03:58:41;3.30;99.90
60039;DHT22;45916;52.734;6.544;2022-12-08T04:01:07;3.30;99.90
60039;DHT22;45916;52.734;6.544;2022-12-08T04:03:32;3.30;99.90
60039;DHT22;45916;52.734;6.544;2022-12-08T04:05:58;3.30;99.90
60039;DHT22;45916;52.734;6.544;2022-12-08T04:08:24;3.30;99.90
60039;DHT22;45916;52.734;6.544;2022-12-08T04:10:49;3.30;99.90
60039;DHT22;45916;52.734;6.544;2022-12-08T04:13:15;3.40;99.90
60039;DHT22;45916;52.734;6.544;2022-12-08T04:15:45;3.40;99.90
60039;DHT22;45916;52.734;6.544;2022-12-08T04:18:11;3.40;99.90
60039;DHT22;45916;52.734;6.544;2022-12-08T04:20:41;3.50;99.90
60039;DHT22;45916;52.734;6.544;2022-12-08T04:23:08;3.50;99.90
60039;DHT22;45916;52.734;6.544;2022-12-08T04:25:35;3.50;99.90
60039;DHT22;45916;52.734;6.544;2022-12-08T04:28:01;3.50;99.90
60039;DHT22;45916;52.734;6.544;2022-12-08T04:30:27;3.50;99.90
60039;DHT22;45916;52.734;6.544;2022-12-08T04:32:52;3.50;99.90
60039;DHT22;45916;52.734;6.544;2022-12-08T04:35:18;3.50;99.90
60039;DHT22;45916;52.734;6.544;2022-12-08T04:37:44;3.50;99.90
60039;DHT22;45916;52.734;6.544;2022-12-08T04:40:11;3.50;99.90
60039;DHT22;45916;52.734;6.544;2022-12-08T04:42:37;3.50;99.90
60039;DHT22;45916;52.734;6.544;2022-12-08T04:45:03;3.40;99.90
60039;DHT22;45916;52.734;6.544;2022-12-08T04:47:29;3.30;99.90
60039;DHT22;45916;52.734;6.544;2022-12-08T04:49:55;3.30;99.90
60039;DHT22;45916;52.734;6.544;2022-12-08T04:52:21;3.30;99.90
60039;DHT22;45916;52.734;6.544;2022-12-08T04:54:47;3.30;99.90
60039;DHT22;45916;52.734;6.544;2022-12-08T04:57:12;3.30;99.90
60039;DHT22;45916;52.734;6.544;2022-12-08T04:59:38;3.20;99.90
60039;DHT22;45916;52.734;6.544;2022-12-08T05:02:04;3.20;99.90
60039;DHT22;45916;52.734;6.544;2022-12-08T05:04:30;3.20;99.90
60039;DHT22;45916;52.734;6.544;2022-12-08T05:06:56;3.20;99.90
60039;DHT22;45916;52.734;6.544;2022-12-08T05:09:21;3.10;99.90
60039;DHT22;45916;52.734;6.544;2022-12-08T05:11:47;3.20;99.90
60039;DHT22;45916;52.734;6.544;2022-12-08T05:14:14;3.10;99.90
60039;DHT22;45916;52.734;6.544;2022-12-08T05:16:41;3.20;99.90
60039;DHT22;45916;52.734;6.544;2022-12-08T05:19:07;3.20;99.90
60039;DHT22;45916;52.734;6.544;2022-12-08T05:21:33;3.20;99.90
60039;DHT22;45916;52.734;6.544;2022-12-08T05:23:59;3.20;99.90
60039;DHT22;45916;52.734;6.544;2022-12-08T05:26:25;3.20;99.90
60039;DHT22;45916;52.734;6.544;2022-12-08T05:28:50;3.30;99.90
60039;DHT22;45916;52.734;6.544;2022-12-08T05:31:16;3.30;99.90
60039;DHT22;45916;52.734;6.544;2022-12-08T05:33:44;3.20;99.90
60039;DHT22;45916;52.734;6.544;2022-12-08T05:36:12;3.20;99.90
60039;DHT22;45916;52.734;6.544;2022-12-08T05:38:38;3.20;99.90
60039;DHT22;45916;52.734;6.544;2022-12-08T05:41:09;3.20;99.90
60039;DHT22;45916;52.734;6.544;2022-12-08T05:43:36;3.10;99.90
60039;DHT22;45916;52.734;6.544;2022-12-08T05:46:02;3.10;99.90
60039;DHT22;45916;52.734;6.544;2022-12-08T05:48:27;3.10;99.90
60039;DHT22;45916;52.734;6.544;2022-12-08T05:50:53;3.10;99.90
60039;DHT22;45916;52.734;6.544;2022-12-08T05:53:19;3.10;99.90
60039;DHT22;45916;52.734;6.544;2022-12-08T05:55:46;3.00;99.90
60039;DHT22;45916;52.734;6.544;2022-12-08T05:58:14;3.00;99.90
60039;DHT22;45916;52.734;6.544;2022-12-08T06:00:41;3.00;99.90
60039;DHT22;45916;52.734;6.544;2022-12-08T06:03:07;3.00;99.90
60039;DHT22;45916;52.734;6.544;2022-12-08T06:05:34;3.00;99.90
60039;DHT22;45916;52.734;6.544;2022-12-08T06:08:00;2.90;99.90
60039;DHT22;45916;52.734;6.544;2022-12-08T06:10:26;2.90;99.90
60039;DHT22;45916;52.734;6.544;2022-12-08T06:12:51;2.90;99.90
60039;DHT22;45916;52.734;6.544;2022-12-08T06:15:17;3.00;99.90
60039;DHT22;45916;52.734;6.544;2022-12-08T06:17:43;3.00;99.90
60039;DHT22;45916;52.734;6.544;2022-12-08T06:20:09;3.10;99.90
60039;DHT22;45916;52.734;6.544;2022-12-08T06:22:35;3.10;99.90
60039;DHT22;45916;52.734;6.544;2022-12-08T06:25:00;3.10;99.90
60039;DHT22;45916;52.734;6.544;2022-12-08T06:27:26;3.10;99.90
60039;DHT22;45916;52.734;6.544;2022-12-08T06:29:52;3.10;99.90
60039;DHT22;45916;52.734;6.544;2022-12-08T06:32:18;3.10;99.90
60039;DHT22;45916;52.734;6.544;2022-12-08T06:34:43;3.10;99.90
60039;DHT22;45916;52.734;6.544;2022-12-08T06:37:09;3.00;99.90
60039;DHT22;45916;52.734;6.544;2022-12-08T06:39:35;3.00;99.90
60039;DHT22;45916;52.734;6.544;2022-12-08T06:42:01;2.90;99.90
60039;DHT22;45916;52.734;6.544;2022-12-08T06:44:45;2.90;99.90
60039;DHT22;45916;52.734;6.544;2022-12-08T06:47:11;2.80;99.90
60039;DHT22;45916;52.734;6.544;2022-12-08T06:49:37;2.80;99.90
60039;DHT22;45916;52.734;6.544;2022-12-08T06:52:03;2.80;99.90
60039;DHT22;45916;52.734;6.544;2022-12-08T06:54:28;2.90;99.90
60039;DHT22;45916;52.734;6.544;2022-12-08T06:56:54;2.90;99.90
60039;DHT22;45916;52.734;6.544;2022-12-08T06:59:19;2.90;99.90
60039;DHT22;45916;52.734;6.544;2022-12-08T07:01:45;2.90;99.90
60039;DHT22;45916;52.734;6.544;2022-12-08T07:04:11;2.90;99.90
60039;DHT22;45916;52.734;6.544;2022-12-08T07:06:37;2.90;99.90
60039;DHT22;45916;52.734;6.544;2022-12-08T07:09:03;2.90;99.90
60039;DHT22;45916;52.734;6.544;2022-12-08T07:11:28;2.90;99.90
60039;DHT22;45916;52.734;6.544;2022-12-08T07:13:55;2.90;99.90
60039;DHT22;45916;52.734;6.544;2022-12-08T07:16:21;2.90;99.90
60039;DHT22;45916;52.734;6.544;2022-12-08T07:18:47;2.80;99.90
60039;DHT22;45916;52.734;6.544;2022-12-08T07:21:14;2.70;99.90
60039;DHT22;45916;52.734;6.544;2022-12-08T07:23:40;2.70;99.90
60039;DHT22;45916;52.734;6.544;2022-12-08T07:26:08;2.60;99.90
60039;DHT22;45916;52.734;6.544;2022-12-08T07:28:39;2.60;99.90
60039;DHT22;45916;52.734;6.544;2022-12-08T07:31:06;2.60;99.90
60039;DHT22;45916;52.734;6.544;2022-12-08T07:33:33;2.70;99.90
60039;DHT22;45916;52.734;6.544;2022-12-08T07:36:03;2.70;99.90
60039;DHT22;45916;52.734;6.544;2022-12-08T07:38:29;2.80;99.90
60039;DHT22;45916;52.734;6.544;2022-12-08T07:40:54;2.80;99.90
60039;DHT22;45916;52.734;6.544;2022-12-08T07:43:21;2.70;99.90
60039;DHT22;45916;52.734;6.544;2022-12-08T07:45:47;2.70;99.90
60039;DHT22;45916;52.734;6.544;2022-12-08T07:48:12;2.60;99.90
60039;DHT22;45916;52.734;6.544;2022-12-08T07:50:38;2.60;99.90
60039;DHT22;45916;52.734;6.544;2022-12-08T07:53:05;2.60;99.90
60039;DHT22;45916;52.734;6.544;2022-12-08T07:55:37;2.60;99.90
60039;DHT22;45916;52.734;6.544;2022-12-08T07:58:03;2.60;99.90
60039;DHT22;45916;52.734;6.544;2022-12-08T08:00:29;2.60;99.90
60039;DHT22;45916;52.734;6.544;2022-12-08T08:02:54;2.60;99.90
60039;DHT22;45916;52.734;6.544;2022-12-08T08:05:21;2.60;99.90
60039;DHT22;45916;52.734;6.544;2022-12-08T08:07:47;2.60;99.90
60039;DHT22;45916;52.734;6.544;2022-12-08T08:10:12;2.60;99.90
60039;DHT22;45916;52.734;6.544;2022-12-08T08:12:38;2.60;99.90
60039;DHT22;45916;52.734;6.544;2022-12-08T08:15:06;2.70;99.90
60039;DHT22;45916;52.734;6.544;2022-12-08T08:17:33;2.70;99.90
60039;DHT22;45916;52.734;6.544;2022-12-08T08:19:59;2.70;99.90
60039;DHT22;45916;52.734;6.544;2022-12-08T08:22:25;2.70;99.90
60039;DHT22;45916;52.734;6.544;2022-12-08T08:24:52;2.80;99.90
60039;DHT22;45916;52.734;6.544;2022-12-08T08:27:17;2.70;99.90
60039;DHT22;45916;52.734;6.544;2022-12-08T08:29:43;2.80;99.90
60039;DHT22;45916;52.734;6.544;2022-12-08T08:32:09;2.80;99.90
60039;DHT22;45916;52.734;6.544;2022-12-08T08:34:35;2.80;99.90
60039;DHT22;45916;52.734;6.544;2022-12-08T08:37:01;2.90;99.90
60039;DHT22;45916;52.734;6.544;2022-12-08T08:39:26;2.90;99.90
60039;DHT22;45916;52.734;6.544;2022-12-08T08:41:54;2.90;99.90
60039;DHT22;45916;52.734;6.544;2022-12-08T08:44:20;2.90;99.90
60039;DHT22;45916;52.734;6.544;2022-12-08T08:46:45;3.00;99.90
60039;DHT22;45916;52.734;6.544;2022-12-08T08:49:11;3.10;99.90
60039;DHT22;45916;52.734;6.544;2022-12-08T08:51:37;3.10;99.90
60039;DHT22;45916;52.734;6.544;2022-12-08T08:54:03;3.10;99.90
60039;DHT22;45916;52.734;6.544;2022-12-08T08:56:29;3.20;99.90
60039;DHT22;45916;52.734;6.544;2022-12-08T08:58:56;3.20;99.90
60039;DHT22;45916;52.734;6.544;2022-12-08T09:01:24;3.30;99.90
60039;DHT22;45916;52.734;6.544;2022-12-08T09:03:51;3.30;99.90
60039;DHT22;45916;52.734;6.544;2022-12-08T09:06:18;3.30;99.90
60039;DHT22;45916;52.734;6.544;2022-12-08T09:08:44;3.40;99.90
60039;DHT22;45916;52.734;6.544;2022-12-08T09:11:10;3.40;99.90
60039;DHT22;45916;52.734;6.544;2022-12-08T09:13:36;3.40;99.90
60039;DHT22;45916;52.734;6.544;2022-12-08T09:16:04;3.40;99.90
60039;DHT22;45916;52.734;6.544;2022-12-08T09:18:30;3.50;99.90
60039;DHT22;45916;52.734;6.544;2022-12-08T09:20:56;3.50;99.90
60039;DHT22;45916;52.734;6.544;2022-12-08T09:23:27;3.60;99.90
60039;DHT22;45916;52.734;6.544;2022-12-08T09:25:53;3.50;99.90
60039;DHT22;45916;52.734;6.544;2022-12-08T09:28:18;3.50;99.90
60039;DHT22;45916;52.734;6.544;2022-12-08T09:30:44;3.50;99.90
60039;DHT22;45916;52.734;6.544;2022-12-08T09:33:10;3.60;99.90
60039;DHT22;45916;52.734;6.544;2022-12-08T09:35:35;3.70;99.90
60039;DHT22;45916;52.734;6.544;2022-12-08T09:38:01;3.70;99.90
60039;DHT22;45916;52.734;6.544;2022-12-08T09:40:27;3.70;99.90
60039;DHT22;45916;52.734;6.544;2022-12-08T09:45:33;3.80;99.90
60039;DHT22;45916;52.734;6.544;2022-12-08T09:48:09;3.80;99.90
60039;DHT22;45916;52.734;6.544;2022-12-08T09:50:56;3.80;99.90
60039;DHT22;45916;52.734;6.544;2022-12-08T09:53:26;3.90;99.90
60039;DHT22;45916;52.734;6.544;2022-12-08T09:55:55;4.00;99.90
60039;DHT22;45916;52.734;6.544;2022-12-08T10:01:11;4.20;99.90
60039;DHT22;45916;52.734;6.544;2022-12-08T10:03:37;4.20;99.90
60039;DHT22;45916;52.734;6.544;2022-12-08T10:08:57;4.30;99.90
60039;DHT22;45916;52.734;6.544;2022-12-08T10:11:39;4.40;99.90
60039;DHT22;45916;52.734;6.544;2022-12-08T10:14:22;4.40;99.90
60039;DHT22;45916;52.734;6.544;2022-12-08T10:16:53;4.40;99.90
60039;DHT22;45916;52.734;6.544;2022-12-08T10:19:23;4.50;99.90
60039;DHT22;45916;52.734;6.544;2022-12-08T10:21:50;4.70;99.90
60039;DHT22;45916;52.734;6.544;2022-12-08T10:24:30;4.80;99.90
60039;DHT22;45916;52.734;6.544;2022-12-08T10:26:58;4.90;99.90
60039;DHT22;45916;52.734;6.544;2022-12-08T10:29:24;4.90;99.90
60039;DHT22;45916;52.734;6.544;2022-12-08T10:31:50;4.80;99.90
60039;DHT22;45916;52.734;6.544;2022-12-08T10:34:21;4.60;99.90
60039;DHT22;45916;52.734;6.544;2022-12-08T10:36:56;4.40;99.90
60039;DHT22;45916;52.734;6.544;2022-12-08T10:42:00;4.10;99.90
60039;DHT22;45916;52.734;6.544;2022-12-08T10:44:27;4.10;99.90
60039;DHT22;45916;52.734;6.544;2022-12-08T10:46:53;4.10;99.90
60039;DHT22;45916;52.734;6.544;2022-12-08T10:49:28;4.10;99.90
60039;DHT22;45916;52.734;6.544;2022-12-08T10:51:56;4.20;99.90
60039;DHT22;45916;52.734;6.544;2022-12-08T10:54:34;4.20;99.90
60039;DHT22;45916;52.734;6.544;2022-12-08T10:57:02;4.20;99.90
60039;DHT22;45916;52.734;6.544;2022-12-08T10:59:27;4.20;99.90
60039;DHT22;45916;52.734;6.544;2022-12-08T11:01:55;4.30;99.90
60039;DHT22;45916;52.734;6.544;2022-12-08T11:04:33;4.30;99.90
60039;DHT22;45916;52.734;6.544;2022-12-08T11:07:01;4.30;99.90
60039;DHT22;45916;52.734;6.544;2022-12-08T11:09:36;4.30;99.90
60039;DHT22;45916;52.734;6.544;2022-12-08T11:12:20;4.20;99.90
60039;DHT22;45916;52.734;6.544;2022-12-08T11:14:47;4.30;99.90
60039;DHT22;45916;52.734;6.544;2022-12-08T11:20:03;4.30;99.90
60039;DHT22;45916;52.734;6.544;2022-12-08T11:22:37;4.30;99.90
60039;DHT22;45916;52.734;6.544;2022-12-08T11:27:33;4.20;99.90
60039;DHT22;45916;52.734;6.544;2022-12-08T11:30:00;4.20;99.90
60039;DHT22;45916;52.734;6.544;2022-12-08T11:32:26;4.10;99.90
60039;DHT22;45916;52.734;6.544;2022-12-08T11:35:01;4.00;99.90
60039;DHT22;45916;52.734;6.544;2022-12-08T11:37:33;4.00;99.90
60039;DHT22;45916;52.734;6.544;2022-12-08T11:40:09;3.80;99.90
60039;DHT22;45916;52.734;6.544;2022-12-08T11:43:04;3.70;99.90
60039;DHT22;45916;52.734;6.544;2022-12-08T11:45:34;3.70;99.90
60039;DHT22;45916;52.734;6.544;2022-12-08T11:48:18;3.70;99.90
60039;DHT22;45916;52.734;6.544;2022-12-08T11:51:04;3.60;99.90
60039;DHT22;45916;52.734;6.544;2022-12-08T11:58:59;3.40;99.90
60039;DHT22;45916;52.734;6.544;2022-12-08T12:01:26;3.30;99.90
60039;DHT22;45916;52.734;6.544;2022-12-08T12:04:06;3.30;99.90
60039;DHT22;45916;52.734;6.544;2022-12-08T12:17:44;3.10;99.90
60039;DHT22;45916;52.734;6.544;2022-12-08T12:20:26;3.10;99.90
60039;DHT22;45916;52.734;6.544;2022-12-08T12:23:08;3.30;99.90
60039;DHT22;45916;52.734;6.544;2022-12-08T12:25:49;3.40;99.90
60039;DHT22;45916;52.734;6.544;2022-12-08T12:28:18;3.50;99.90
60039;DHT22;45916;52.734;6.544;2022-12-08T12:30:59;3.60;99.90
60039;DHT22;45916;52.734;6.544;2022-12-08T12:33:29;3.60;99.90
60039;DHT22;45916;52.734;6.544;2022-12-08T12:35:56;3.60;99.90
60039;DHT22;45916;52.734;6.544;2022-12-08T12:38:33;3.70;99.90
60039;DHT22;45916;52.734;6.544;2022-12-08T12:41:27;3.80;99.90
60039;DHT22;45916;52.734;6.544;2022-12-08T12:50:03;4.10;99.90
60039;DHT22;45916;52.734;6.544;2022-12-08T12:57:36;4.40;99.90
60039;DHT22;45916;52.734;6.544;2022-12-08T13:02:46;4.60;99.90
60039;DHT22;45916;52.734;6.544;2022-12-08T13:05:17;4.80;99.90
60039;DHT22;45916;52.734;6.544;2022-12-08T13:07:53;5.00;99.90
60039;DHT22;45916;52.734;6.544;2022-12-08T13:10:28;5.30;99.90
60039;DHT22;45916;52.734;6.544;2022-12-08T13:16:20;5.60;99.90
60039;DHT22;45916;52.734;6.544;2022-12-08T13:18:45;5.60;99.90
60039;DHT22;45916;52.734;6.544;2022-12-08T13:21:15;5.40;99.90
60039;DHT22;45916;52.734;6.544;2022-12-08T13:24:29;5.20;99.90
60039;DHT22;45916;52.734;6.544;2022-12-08T13:26:43;5.00;99.90
60039;DHT22;45916;52.734;6.544;2022-12-08T13:29:21;4.90;99.90
60039;DHT22;45916;52.734;6.544;2022-12-08T13:34:29;4.90;99.90
60039;DHT22;45916;52.734;6.544;2022-12-08T13:42:45;5.60;99.90
60039;DHT22;45916;52.734;6.544;2022-12-08T13:45:22;5.80;99.90
60039;DHT22;45916;52.734;6.544;2022-12-08T13:47:53;6.00;99.90
60039;DHT22;45916;52.734;6.544;2022-12-08T13:50:29;6.20;99.90
60039;DHT22;45916;52.734;6.544;2022-12-08T13:53:00;6.50;99.90
60039;DHT22;45916;52.734;6.544;2022-12-08T13:55:28;6.60;99.90
60039;DHT22;45916;52.734;6.544;2022-12-08T13:57:55;6.50;99.90
60039;DHT22;45916;52.734;6.544;2022-12-08T14:00:22;6.20;99.90
60039;DHT22;45916;52.734;6.544;2022-12-08T14:02:58;5.90;99.90
60039;DHT22;45916;52.734;6.544;2022-12-08T14:05:26;5.60;99.90
60039;DHT22;45916;52.734;6.544;2022-12-08T14:08:08;5.40;99.90
60039;DHT22;45916;52.734;6.544;2022-12-08T14:10:40;5.20;99.90
60039;DHT22;45916;52.734;6.544;2022-12-08T14:13:10;5.10;99.90
60039;DHT22;45916;52.734;6.544;2022-12-08T14:15:38;4.90;99.90
60039;DHT22;45916;52.734;6.544;2022-12-08T14:18:05;4.60;99.90
60039;DHT22;45916;52.734;6.544;2022-12-08T14:20:33;4.50;99.90
60039;DHT22;45916;52.734;6.544;2022-12-08T14:22:58;4.30;99.90
60039;DHT22;45916;52.734;6.544;2022-12-08T14:25:26;4.10;99.90
60039;DHT22;45916;52.734;6.544;2022-12-08T14:28:00;3.90;99.90
60039;DHT22;45916;52.734;6.544;2022-12-08T14:30:33;3.70;99.90
60039;DHT22;45916;52.734;6.544;2022-12-08T14:33:02;3.60;99.90
60039;DHT22;45916;52.734;6.544;2022-12-08T14:35:31;3.40;99.90
60039;DHT22;45916;52.734;6.544;2022-12-08T14:38:02;3.30;99.90
60039;DHT22;45916;52.734;6.544;2022-12-08T14:40:34;3.10;99.90
60039;DHT22;45916;52.734;6.544;2022-12-08T14:45:29;2.90;99.90
60039;DHT22;45916;52.734;6.544;2022-12-08T14:48:23;2.80;99.90
60039;DHT22;45916;52.734;6.544;2022-12-08T14:51:06;2.70;99.90
60039;DHT22;45916;52.734;6.544;2022-12-08T14:53:45;2.60;99.90
60039;DHT22;45916;52.734;6.544;2022-12-08T14:56:18;2.50;99.90
60039;DHT22;45916;52.734;6.544;2022-12-08T14:58:45;2.40;99.90
60039;DHT22;45916;52.734;6.544;2022-12-08T15:01:14;2.40;99.90
60039;DHT22;45916;52.734;6.544;2022-12-08T15:03:41;2.40;99.90
60039;DHT22;45916;52.734;6.544;2022-12-08T15:06:07;2.40;99.90
60039;DHT22;45916;52.734;6.544;2022-12-08T15:08:49;2.50;99.90
60039;DHT22;45916;52.734;6.544;2022-12-08T15:13:49;2.70;99.90
60039;DHT22;45916;52.734;6.544;2022-12-08T15:16:38;2.80;99.90
60039;DHT22;45916;52.734;6.544;2022-12-08T15:19:21;2.90;99.90
60039;DHT22;45916;52.734;6.544;2022-12-08T15:21:53;2.90;99.90
60039;DHT22;45916;52.734;6.544;2022-12-08T15:24:22;3.00;99.90
60039;DHT22;45916;52.734;6.544;2022-12-08T15:26:49;3.00;99.90
60039;DHT22;45916;52.734;6.544;2022-12-08T15:29:21;3.10;99.90
60039;DHT22;45916;52.734;6.544;2022-12-08T15:31:48;3.10;99.90
60039;DHT22;45916;52.734;6.544;2022-12-08T15:34:14;3.20;99.90
60039;DHT22;45916;52.734;6.544;2022-12-08T15:36:39;3.20;99.90
60039;DHT22;45916;52.734;6.544;2022-12-08T15:41:50;3.30;99.90
60039;DHT22;45916;52.734;6.544;2022-12-08T15:44:16;3.30;99.90
60039;DHT22;45916;52.734;6.544;2022-12-08T15:46:41;3.30;99.90
60039;DHT22;45916;52.734;6.544;2022-12-08T15:49:15;3.40;99.90
60039;DHT22;45916;52.734;6.544;2022-12-08T15:51:41;3.40;99.90
60039;DHT22;45916;52.734;6.544;2022-12-08T15:54:07;3.40;99.90
60039;DHT22;45916;52.734;6.544;2022-12-08T15:56:33;3.40;99.90
60039;DHT22;45916;52.734;6.544;2022-12-08T15:58:58;3.40;99.90
60039;DHT22;45916;52.734;6.544;2022-12-08T16:01:25;3.40;99.90
60039;DHT22;45916;52.734;6.544;2022-12-08T16:03:51;3.40;99.90
60039;DHT22;45916;52.734;6.544;2022-12-08T16:06:18;3.40;99.90
60039;DHT22;45916;52.734;6.544;2022-12-08T16:08:45;3.40;99.90
60039;DHT22;45916;52.734;6.544;2022-12-08T16:11:10;3.30;99.90
60039;DHT22;45916;52.734;6.544;2022-12-08T16:13:54;3.30;99.90
60039;DHT22;45916;52.734;6.544;2022-12-08T16:16:28;3.20;99.90
60039;DHT22;45916;52.734;6.544;2022-12-08T16:18:54;3.20;99.90
60039;DHT22;45916;52.734;6.544;2022-12-08T16:21:20;3.20;99.90
60039;DHT22;45916;52.734;6.544;2022-12-08T16:23:45;3.20;99.90
60039;DHT22;45916;52.734;6.544;2022-12-08T16:26:16;3.10;99.90
60039;DHT22;45916;52.734;6.544;2022-12-08T16:28:42;3.10;99.90
60039;DHT22;45916;52.734;6.544;2022-12-08T16:31:14;3.00;99.90
60039;DHT22;45916;52.734;6.544;2022-12-08T16:33:40;3.00;99.90
60039;DHT22;45916;52.734;6.544;2022-12-08T16:36:06;2.90;99.90
60039;DHT22;45916;52.734;6.544;2022-12-08T16:38:33;2.80;99.90
60039;DHT22;45916;52.734;6.544;2022-12-08T16:40:59;2.70;99.90
60039;DHT22;45916;52.734;6.544;2022-12-08T16:43:43;2.70;99.90
60039;DHT22;45916;52.734;6.544;2022-12-08T16:46:17;2.60;99.90
60039;DHT22;45916;52.734;6.544;2022-12-08T16:48:43;2.50;99.90
60039;DHT22;45916;52.734;6.544;2022-12-08T16:51:17;2.30;99.90
60039;DHT22;45916;52.734;6.544;2022-12-08T16:53:43;2.20;99.90
60039;DHT22;45916;52.734;6.544;2022-12-08T16:56:17;2.10;99.90
60039;DHT22;45916;52.734;6.544;2022-12-08T16:58:44;2.10;99.90
60039;DHT22;45916;52.734;6.544;2022-12-08T17:01:11;2.10;99.90
60039;DHT22;45916;52.734;6.544;2022-12-08T17:03:39;2.10;99.90
60039;DHT22;45916;52.734;6.544;2022-12-08T17:06:09;2.10;99.90
60039;DHT22;45916;52.734;6.544;2022-12-08T17:08:35;2.10;99.90
60039;DHT22;45916;52.734;6.544;2022-12-08T17:11:01;2.10;99.90
60039;DHT22;45916;52.734;6.544;2022-12-08T17:13:34;2.20;99.90
60039;DHT22;45916;52.734;6.544;2022-12-08T17:16:00;2.20;99.90
60039;DHT22;45916;52.734;6.544;2022-12-08T17:18:27;2.30;99.90
60039;DHT22;45916;52.734;6.544;2022-12-08T17:20:52;2.30;99.90
60039;DHT22;45916;52.734;6.544;2022-12-08T17:23:18;2.40;99.90
60039;DHT22;45916;52.734;6.544;2022-12-08T17:25:44;2.50;99.90
60039;DHT22;45916;52.734;6.544;2022-12-08T17:28:09;2.50;99.90
60039;DHT22;45916;52.734;6.544;2022-12-08T17:30:35;2.50;99.90
60039;DHT22;45916;52.734;6.544;2022-12-08T17:33:01;2.50;99.90
60039;DHT22;45916;52.734;6.544;2022-12-08T17:35:26;2.50;99.90
60039;DHT22;45916;52.734;6.544;2022-12-08T17:37:52;2.50;99.90